^^
Grace C. Lehan Memorial Weather Station Historical Data
Daily Summary for September 3, 2021 Units:  Metric    English   Both
Daily Weekly Monthly Yearly
  High: Low: Average:
Temperature: 21.8 °C 15.1 °C 18.4 °C
Dew Point: 19.3 °C 12.8 °C 16.3 °C
Humidity: 94% 79% 87%
Wind Speed: 1.1km/h 0km/h 0km/h
Wind Gust: 9.7km/h - -
Wind- - SW
Pressure: 1020.5 hPa 1011.7 hPa -
Precipitation: 0 mm    
 
 
Tabular Data for September 3, 2021
Time Temperature Dew Point Pressure Wind Wind Speed Wind Gust Humidity Rainfall Rate (Hourly) solar
00:04 16.8 °C 13.5 °C 1020.5 hPa Calm     80.8% 0 mm 0 W/m2
00:09 16.8 °C 13.5 °C 1020.5 hPa Calm     81% 0 mm 0 W/m2
00:14 16.7 °C 13.2 °C 1020.5 hPa Calm     80% 0 mm 0 W/m2
00:19 16.6 °C 13.3 °C 1020.2 hPa Calm     80.7% 0 mm 0 W/m2
00:24 16.6 °C 13.3 °C 1020.2 hPa Calm     81% 0 mm 0 W/m2
00:29 16.5 °C 13.3 °C 1020.2 hPa Calm     81% 0 mm 0 W/m2
00:34 16.5 °C 13.2 °C 1020.2 hPa Calm     81% 0 mm 0 W/m2
00:39 16.4 °C 13.2 °C 1020.2 hPa Calm     81% 0 mm 0 W/m2
00:44 16.4 °C 13.1 °C 1020.2 hPa Calm     81% 0 mm 0 W/m2
00:49 16.3 °C 13.1 °C 1020.2 hPa Calm     81% 0 mm 0 W/m2
00:54 16.3 °C 13.1 °C 1020.2 hPa Calm     81% 0 mm 0 W/m2
00:59 16.3 °C 13 °C 1020.2 hPa Calm     81% 0 mm 0 W/m2
01:04 16.2 °C 12.9 °C 1019.9 hPa Calm     81% 0 mm 0 W/m2
01:09 16.1 °C 12.9 °C 1019.9 hPa Calm     81.1% 0 mm 0 W/m2
01:14 16.1 °C 13.1 °C 1019.5 hPa Calm     82% 0 mm 0 W/m2
01:19 16.1 °C 13 °C 1019.5 hPa Calm     82% 0 mm 0 W/m2
01:24 16 °C 12.9 °C 1019.5 hPa Calm     82% 0 mm 0 W/m2
01:29 16 °C 12.9 °C 1019.5 hPa Calm     82% 0 mm 0 W/m2
01:34 15.9 °C 12.9 °C 1019.9 hPa Calm     82% 0 mm 0 W/m2
01:39 15.9 °C 13 °C 1019.9 hPa Calm     82.9% 0 mm 0 W/m2
01:44 15.8 °C 13 °C 1019.5 hPa Calm     83% 0 mm 0 W/m2
01:49 15.8 °C 12.9 °C 1019.5 hPa Calm     83% 0 mm 0 W/m2
01:54 15.8 °C 12.9 °C 1019.5 hPa Calm     83% 0 mm 0 W/m2
01:59 15.7 °C 12.8 °C 1019.5 hPa Calm     83% 0 mm 0 W/m2
02:04 15.7 °C 12.8 °C 1019.5 hPa Calm     83% 0 mm 0 W/m2
02:09 15.7 °C 12.9 °C 1019.5 hPa Calm     83.8% 0 mm 0 W/m2
02:14 15.6 °C 12.9 °C 1019.5 hPa Calm     84% 0 mm 0 W/m2
02:19 15.6 °C 12.9 °C 1019.5 hPa Calm     84% 0 mm 0 W/m2
02:24 15.5 °C 12.8 °C 1019.5 hPa Calm     84% 0 mm 0 W/m2
02:29 15.4 °C 12.8 °C 1019.2 hPa Calm     84.5% 0 mm 0 W/m2
02:34 15.3 °C 12.8 °C 1019.5 hPa Calm     85% 0 mm 0 W/m2
02:39 15.2 °C 12.9 °C 1019.2 hPa Calm     85.8% 0 mm 0 W/m2
02:44 15.2 °C 12.9 °C 1019.2 hPa Calm     86% 0 mm 0 W/m2
02:49 15.2 °C 12.8 °C 1019.2 hPa Calm     86% 0 mm 0 W/m2
02:54 15.2 °C 12.9 °C 1019.2 hPa Calm     86.4% 0 mm 0 W/m2
02:59 15.2 °C 13 °C 1019.2 hPa Calm     87% 0 mm 0 W/m2
03:04 15.2 °C 13 °C 1019.2 hPa Calm     87% 0 mm 0 W/m2
03:09 15.2 °C 13 °C 1019.2 hPa Calm     87% 0 mm 0 W/m2
03:14 15.2 °C 13 °C 1019.2 hPa Calm     87% 0 mm 0 W/m2
03:19 15.2 °C 13 °C 1018.8 hPa Calm     87% 0 mm 0 W/m2
03:24 15.2 °C 13 °C 1018.8 hPa Calm     87% 0 mm 0 W/m2
03:29 15.1 °C 13 °C 1018.8 hPa Calm     87% 0 mm 0 W/m2
03:34 15.1 °C 13 °C 1018.8 hPa Calm     87.2% 0 mm 0 W/m2
03:39 15.1 °C 13.2 °C 1018.8 hPa Calm     88% 0 mm 0 W/m2
03:44 15.2 °C 13.2 °C 1018.8 hPa Calm     88% 0 mm 0 W/m2
03:49 15.2 °C 13.2 °C 1018.8 hPa Calm     88% 0 mm 0 W/m2
03:54 15.2 °C 13.2 °C 1018.8 hPa Calm     88% 0 mm 0 W/m2
03:59 15.2 °C 13.2 °C 1018.8 hPa Calm     88% 0 mm 0 W/m2
04:09 15.3 °C 13.3 °C 1019.2 hPa Calm     88% 0 mm 0 W/m2
04:14 15.3 °C 13.3 °C 1019.2 hPa Calm     88% 0 mm 0 W/m2
04:19 15.3 °C 13.4 °C 1019.2 hPa Calm     88% 0 mm 0 W/m2
04:24 15.3 °C 13.4 °C 1018.8 hPa Calm     88% 0 mm 0 W/m2
04:29 15.4 °C 13.4 °C 1018.8 hPa Calm     88% 0 mm 0 W/m2
04:34 15.4 °C 13.4 °C 1018.8 hPa Calm     88% 0 mm 0 W/m2
04:39 15.4 °C 13.5 °C 1019.2 hPa Calm     88.2% 0 mm 0 W/m2
04:44 15.4 °C 13.7 °C 1019.2 hPa Calm     89% 0 mm 0 W/m2
04:49 15.5 °C 13.7 °C 1019.2 hPa Calm     89% 0 mm 0 W/m2
04:54 15.5 °C 13.7 °C 1018.8 hPa Calm     89% 0 mm 0 W/m2
04:59 15.5 °C 13.7 °C 1018.8 hPa Calm     89% 0 mm 0 W/m2
05:04 15.5 °C 13.7 °C 1019.2 hPa Calm     89% 0 mm 0 W/m2
05:09 15.6 °C 13.7 °C 1019.2 hPa Calm     89% 0 mm 0 W/m2
05:14 15.6 °C 13.8 °C 1018.8 hPa Calm     89% 0 mm 0 W/m2
05:19 15.6 °C 13.8 °C 1019.2 hPa Calm     89% 0 mm 0 W/m2
05:24 15.6 °C 13.8 °C 1018.8 hPa Calm     89% 0 mm 0 W/m2
05:29 15.6 °C 13.8 °C 1018.8 hPa Calm     89% 0 mm 5 W/m2
05:34 15.6 °C 13.8 °C 1018.8 hPa Calm     89% 0 mm 11 W/m2
05:39 15.7 °C 13.8 °C 1018.5 hPa Calm     89% 0 mm 12 W/m2
05:44 15.7 °C 13.8 °C 1018.5 hPa Calm     89% 0 mm 12 W/m2
05:49 15.7 °C 13.9 °C 1018.5 hPa Calm     89% 0 mm 14 W/m2
05:54 15.7 °C 13.9 °C 1018.5 hPa Calm     89.5% 0 mm 21 W/m2
05:59 15.7 °C 14.1 °C 1018.2 hPa Calm     90% 0 mm 28 W/m2
06:04 15.7 °C 14.1 °C 1018.5 hPa Calm     90% 0 mm 35 W/m2
06:09 15.7 °C 14.1 °C 1018.5 hPa Calm     90% 0 mm 37 W/m2
06:14 15.7 °C 14.1 °C 1018.5 hPa Calm     90% 0 mm 37 W/m2
06:19 15.7 °C 14.1 °C 1018.5 hPa Calm     90% 0 mm 35 W/m2
06:24 15.7 °C 14.1 °C 1018.5 hPa Calm     90% 0 mm 35 W/m2
06:29 15.7 °C 14.1 °C 1018.5 hPa Calm     90% 0 mm 42 W/m2
06:34 15.7 °C 14.1 °C 1018.5 hPa Calm     90% 0 mm 53 W/m2
06:39 15.7 °C 14.2 °C 1018.5 hPa Calm     90.8% 0 mm 69 W/m2
06:44 15.7 °C 14.3 °C 1018.5 hPa Calm     91% 0 mm 70 W/m2
06:49 15.7 °C 14.3 °C 1018.5 hPa Calm     91% 0 mm 69 W/m2
06:54 15.8 °C 14.3 °C 1018.5 hPa Calm     91% 0 mm 72 W/m2
06:59 15.8 °C 14.3 °C 1018.5 hPa Calm     91% 0 mm 79 W/m2
07:04 15.8 °C 14.4 °C 1018.5 hPa Calm     91% 0 mm 83 W/m2
07:09 15.9 °C 14.4 °C 1018.5 hPa Calm     91% 0 mm 83 W/m2
07:14 15.9 °C 14.5 °C 1018.5 hPa Calm     91% 0 mm 81 W/m2
07:19 16 °C 14.5 °C 1018.5 hPa Calm     90.7% 0 mm 83 W/m2
07:24 16 °C 14.4 °C 1018.5 hPa Calm     90% 0 mm 90 W/m2
07:29 16.1 °C 14.4 °C 1018.5 hPa Calm     90% 0 mm 93 W/m2
07:34 16.1 °C 14.4 °C 1018.5 hPa Calm     90% 0 mm 93 W/m2
07:39 16.1 °C 14.5 °C 1018.2 hPa Calm     90% 0 mm 84 W/m2
07:44 16.1 °C 14.3 °C 1018.2 hPa Calm     89.3% 0 mm 81 W/m2
07:49 16.1 °C 14.3 °C 1018.2 hPa Calm     89% 0 mm 84 W/m2
07:54 16.1 °C 14.3 °C 1018.2 hPa Calm     89% 0 mm 100 W/m2
07:59 16.1 °C 14.3 °C 1018.2 hPa Calm     89% 0 mm 118 W/m2
08:09 16.2 °C 14.6 °C 1018.2 hPa Calm     90% 0 mm 100 W/m2
08:14 16.3 °C 14.6 °C 1018.2 hPa Calm     89.7% 0 mm 125 W/m2
08:19 16.3 °C 14.5 °C 1018.2 hPa Calm     89% 0 mm 128 W/m2
08:24 16.4 °C 14.6 °C 1018.2 hPa Calm     89% 0 mm 127 W/m2
08:29 16.4 °C 14.6 °C 1018.5 hPa Calm   1.6 km/h 89% 0 mm 171 W/m2
08:34 16.5 °C 14.7 °C 1018.2 hPa Calm   1.6 km/h 89% 0 mm 199 W/m2
08:39 16.6 °C 14.8 °C 1018.2 hPa Calm     89% 0 mm 199 W/m2
08:44 16.7 °C 14.8 °C 1018.2 hPa Calm     88.5% 0 mm 183 W/m2
08:49 16.8 °C 14.8 °C 1018.2 hPa Calm     87.8% 0 mm 218 W/m2
08:54 16.9 °C 14.7 °C 1018.2 hPa Calm     87% 0 mm 237 W/m2
08:59 17 °C 14.9 °C 1017.8 hPa Calm     87.3% 0 mm 185 W/m2
09:04 17.1 °C 14.9 °C 1017.8 hPa Calm     87% 0 mm 178 W/m2
09:09 17.2 °C 15 °C 1018.2 hPa Calm     86.6% 0 mm 185 W/m2
09:14 17.3 °C 15 °C 1018.2 hPa Calm     86.3% 0 mm 221 W/m2
09:19 17.3 °C 15 °C 1017.8 hPa Calm     86% 0 mm 221 W/m2
09:24 17.4 °C 15.1 °C 1017.8 hPa Calm     86% 0 mm 204 W/m2
09:29 17.5 °C 15.1 °C 1017.8 hPa Calm     85.7% 0 mm 146 W/m2
09:34 17.5 °C 14.9 °C 1017.8 hPa Calm     85% 0 mm 125 W/m2
09:39 17.5 °C 14.8 °C 1017.5 hPa Calm     84.2% 0 mm 142 W/m2
09:44 17.5 °C 14.8 °C 1017.5 hPa Calm     84% 0 mm 251 W/m2
09:49 17.6 °C 14.9 °C 1017.5 hPa Calm     84.5% 0 mm 260 W/m2
09:54 17.7 °C 15.2 °C 1017.5 hPa Calm     85.2% 0 mm 236 W/m2
09:59 17.8 °C 15.1 °C 1017.5 hPa Calm     83.6% 0 mm 311 W/m2
10:04 17.9 °C 15.1 °C 1017.5 hPa Calm     83.4% 0 mm 271 W/m2
10:09 18.1 °C 14.9 °C 1017.5 hPa Calm     82.1% 0 mm 221 W/m2
10:14 18.1 °C 14.9 °C 1017.5 hPa Calm     81.6% 0 mm 227 W/m2
10:19 18.2 °C 15 °C 1017.2 hPa Calm     81.6% 0 mm 220 W/m2
10:24 18.3 °C 14.9 °C 1017.2 hPa Calm     80.7% 0 mm 308 W/m2
10:29 18.3 °C 15 °C 1017.2 hPa Calm     81% 0 mm 432 W/m2
10:34 18.5 °C 15 °C 1017.2 hPa Calm     80.2% 0 mm 301 W/m2
10:39 18.7 °C 15.3 °C 1017.2 hPa Calm     80.7% 0 mm 269 W/m2
10:44 18.7 °C 15.1 °C 1017.2 hPa Calm     79% 0 mm 257 W/m2
10:49 18.8 °C 15.2 °C 1017.2 hPa Calm     79.6% 0 mm 234 W/m2
10:54 18.9 °C 15.4 °C 1017.2 hPa Calm   1.6 km/h 80% 0 mm 387 W/m2
10:59 18.9 °C 15.5 °C 1017.2 hPa Calm   1.6 km/h 80.2% 0 mm 390 W/m2
11:04 19.1 °C 15.6 °C 1016.8 hPa Calm   1.6 km/h 80.2% 0 mm 397 W/m2
11:09 19.2 °C 15.8 °C 1016.8 hPa SW 0.2 km/h 3.2 km/h 80.5% 0 mm 383 W/m2
11:14 19.3 °C 15.7 °C 1017.2 hPa Calm   3.2 km/h 80% 0 mm 434 W/m2
11:19 19.4 °C 15.7 °C 1017.2 hPa SW 0.2 km/h 3.2 km/h 79.5% 0 mm 345 W/m2
11:24 19.4 °C 15.9 °C 1016.8 hPa Calm   3.2 km/h 80.2% 0 mm 345 W/m2
11:29 19.6 °C 16.2 °C 1016.8 hPa Calm   3.2 km/h 80.9% 0 mm 255 W/m2
11:34 19.6 °C 16.1 °C 1016.8 hPa Calm   3.2 km/h 80% 0 mm 258 W/m2
11:39 19.6 °C 16.2 °C 1016.8 hPa Calm     80.5% 0 mm 301 W/m2
11:44 19.7 °C 16.3 °C 1016.8 hPa SW 1.1 km/h 9.7 km/h 80.5% 0 mm 359 W/m2
11:49 19.9 °C 16.4 °C 1016.8 hPa SW 0.3 km/h 9.7 km/h 80.5% 0 mm 413 W/m2
11:54 19.9 °C 16.6 °C 1016.8 hPa Calm   9.7 km/h 81% 0 mm 415 W/m2
11:59 20 °C 16.8 °C 1016.5 hPa Calm   9.7 km/h 82.1% 0 mm 374 W/m2
12:04 19.9 °C 17 °C 1016.1 hPa Calm     83% 0 mm 311 W/m2
12:09 19.9 °C 17.1 °C 1016.1 hPa Calm     83.7% 0 mm 311 W/m2
12:14 19.9 °C 17.4 °C 1016.5 hPa Calm     85.5% 0 mm 362 W/m2
12:19 20 °C 17.7 °C 1016.1 hPa Calm     86.6% 0 mm 294 W/m2
12:24 19.9 °C 17.5 °C 1016.1 hPa Calm     86% 0 mm 223 W/m2
12:29 19.8 °C 17.6 °C 1016.1 hPa Calm     86.6% 0 mm 236 W/m2
12:34 19.8 °C 17.6 °C 1016.1 hPa Calm     86.7% 0 mm 229 W/m2
12:39 19.8 °C 17.7 °C 1015.8 hPa Calm     87.4% 0 mm 285 W/m2
12:44 19.9 °C 17.8 °C 1015.8 hPa Calm   1.6 km/h 88% 0 mm 311 W/m2
12:49 19.8 °C 17.7 °C 1015.8 hPa Calm   4.8 km/h 87.3% 0 mm 311 W/m2
12:54 19.8 °C 17.8 °C 1015.8 hPa Calm   4.8 km/h 88% 0 mm 250 W/m2
12:59 19.9 °C 17.9 °C 1015.8 hPa Calm   4.8 km/h 88.1% 0 mm 220 W/m2
13:04 19.9 °C 17.9 °C 1015.8 hPa Calm   4.8 km/h 88% 0 mm 211 W/m2
13:09 19.9 °C 17.9 °C 1015.8 hPa Calm   1.6 km/h 88.1% 0 mm 250 W/m2
13:13 19.9 °C 18.1 °C 1015.5 hPa Calm   1.6 km/h 89% 0 mm 195 W/m2
13:19 19.9 °C 18.1 °C 1015.5 hPa Calm   1.6 km/h 89.2% 0 mm 178 W/m2
13:24 19.9 °C 18.3 °C 1015.5 hPa Calm   1.6 km/h 90% 0 mm 148 W/m2
13:29 19.9 °C 18.3 °C 1015.5 hPa Calm   1.6 km/h 90% 0 mm 156 W/m2
13:34 19.9 °C 18.3 °C 1015.5 hPa Calm   1.6 km/h 90% 0 mm 181 W/m2
13:39 19.9 °C 18.3 °C 1015.5 hPa Calm     90% 0 mm 178 W/m2
13:44 20 °C 18.4 °C 1015.5 hPa Calm     90.7% 0 mm 163 W/m2
13:49 20 °C 18.5 °C 1015.5 hPa Calm   1.6 km/h 91% 0 mm 144 W/m2
13:54 19.9 °C 18.4 °C 1015.5 hPa Calm   1.6 km/h 91% 0 mm 146 W/m2
13:59 20 °C 18.4 °C 1015.1 hPa Calm   1.6 km/h 91% 0 mm 167 W/m2
14:04 20 °C 18.5 °C 1015.1 hPa Calm   1.6 km/h 91% 0 mm 199 W/m2
14:09 20 °C 18.5 °C 1015.1 hPa Calm     91% 0 mm 200 W/m2
14:14 20 °C 18.5 °C 1015.1 hPa Calm     91% 0 mm 322 W/m2
14:19 20.1 °C 18.6 °C 1014.8 hPa SSW 0.2 km/h 3.2 km/h 91.4% 0 mm 274 W/m2
14:24 20.2 °C 18.7 °C 1014.8 hPa Calm   3.2 km/h 91.1% 0 mm 255 W/m2
14:29 20.2 °C 18.7 °C 1014.8 hPa Calm   3.2 km/h 91% 0 mm 248 W/m2
14:34 20.3 °C 18.7 °C 1014.8 hPa Calm   3.2 km/h 90.5% 0 mm 262 W/m2
14:39 20.4 °C 18.7 °C 1014.8 hPa SSW 0.2 km/h 6.4 km/h 90% 0 mm 327 W/m2
14:44 20.6 °C 19 °C 1014.4 hPa Calm   6.4 km/h 90.3% 0 mm 380 W/m2
14:49 20.8 °C 19.1 °C 1014.4 hPa Calm   6.4 km/h 89.8% 0 mm 355 W/m2
14:54 20.9 °C 19.1 °C 1014.4 hPa Calm   6.4 km/h 89% 0 mm 367 W/m2
14:59 21.1 °C 19.3 °C 1014.4 hPa SSW 0.2 km/h 6.4 km/h 89% 0 mm 385 W/m2
15:04 21.4 °C 19.3 °C 1014.4 hPa SSW 0.6 km/h 8 km/h 88.1% 0 mm 352 W/m2
15:09 21.5 °C 19.2 °C 1014.4 hPa SW 0.3 km/h 8 km/h 86.9% 0 mm 236 W/m2
15:14 21.6 °C 19.1 °C 1014.4 hPa Calm   8 km/h 85.8% 0 mm 390 W/m2
15:19 21.6 °C 19.1 °C 1014.1 hPa Calm   8 km/h 85.6% 0 mm 454 W/m2
15:24 21.6 °C 19.1 °C 1013.8 hPa SW 0.3 km/h 8 km/h 85.6% 0 mm 299 W/m2
15:29 21.7 °C 19.1 °C 1013.8 hPa SW 0.8 km/h 8 km/h 85% 0 mm 236 W/m2
15:34 21.8 °C 19.1 °C 1014.1 hPa Calm   8 km/h 84.8% 0 mm 264 W/m2
15:39 21.7 °C 19 °C 1014.1 hPa SW 0.2 km/h 6.4 km/h 84.3% 0 mm 264 W/m2
15:44 21.8 °C 19.2 °C 1014.1 hPa Calm   6.4 km/h 85% 0 mm 239 W/m2
15:49 21.8 °C 19.2 °C 1014.1 hPa SSW 0.3 km/h 6.4 km/h 85% 0 mm 181 W/m2
15:54 21.8 °C 19.1 °C 1014.1 hPa SW 0.8 km/h 9.7 km/h 84.2% 0 mm 144 W/m2
15:59 21.8 °C 18.9 °C 1014.1 hPa Calm   9.7 km/h 84% 0 mm 125 W/m2
16:00 21.7 °C 18.8 °C 1013.8 hPa Calm   9.7 km/h 84% 0 mm 114 W/m2
16:09 21.5 °C 18.8 °C 1013.8 hPa WSW 0.2 km/h 4.8 km/h 84.8% 0 mm 148 W/m2
16:14 21.4 °C 18.7 °C 1013.8 hPa Calm   4.8 km/h 85% 0 mm 171 W/m2
16:19 21.3 °C 18.8 °C 1013.8 hPa Calm   4.8 km/h 85.3% 0 mm 165 W/m2
16:24 21.3 °C 18.8 °C 1013.4 hPa WSW 0.2 km/h 4.8 km/h 86% 0 mm 155 W/m2
16:29 21.2 °C 18.8 °C 1013.4 hPa Calm   4.8 km/h 86% 0 mm 178 W/m2
16:34 21.2 °C 18.8 °C 1013.4 hPa Calm   4.8 km/h 86.3% 0 mm 227 W/m2
16:39 21.3 °C 18.9 °C 1013.4 hPa Calm     86.5% 0 mm 199 W/m2
16:44 21.3 °C 18.8 °C 1013.4 hPa Calm     86% 0 mm 206 W/m2
16:49 21.3 °C 18.9 °C 1013.4 hPa Calm     86.3% 0 mm 132 W/m2
16:54 21.3 °C 18.8 °C 1013.4 hPa WSW 0.2 km/h 6.4 km/h 86% 0 mm 132 W/m2
16:59 21.2 °C 18.8 °C 1013.1 hPa WSW 0.2 km/h 6.4 km/h 86% 0 mm 188 W/m2
17:04 21.2 °C 18.7 °C 1013.4 hPa SW 0.8 km/h 8 km/h 86% 0 mm 188 W/m2
17:09 21.2 °C 18.7 °C 1013.4 hPa Calm   8 km/h 86% 0 mm 123 W/m2
17:14 21.2 °C 18.8 °C 1013.1 hPa Calm   8 km/h 86.2% 0 mm 125 W/m2
17:19 21.2 °C 18.8 °C 1013.1 hPa Calm   8 km/h 86.4% 0 mm 185 W/m2
17:24 21.2 °C 18.9 °C 1013.1 hPa Calm   8 km/h 87% 0 mm 169 W/m2
17:29 21.3 °C 19 °C 1013.1 hPa Calm   8 km/h 87% 0 mm 121 W/m2
17:34 21.3 °C 18.9 °C 1013.1 hPa Calm   8 km/h 86.4% 0 mm 93 W/m2
17:39 21.2 °C 18.8 °C 1013.1 hPa Calm     86% 0 mm 83 W/m2
17:44 21.2 °C 18.7 °C 1013.1 hPa Calm     86% 0 mm 65 W/m2
17:49 21.1 °C 18.7 °C 1013.1 hPa Calm   3.2 km/h 86.2% 0 mm 76 W/m2
17:54 21.1 °C 18.8 °C 1013.1 hPa Calm   3.2 km/h 86.9% 0 mm 81 W/m2
17:59 21 °C 18.8 °C 1013.1 hPa Calm   3.2 km/h 87% 0 mm 74 W/m2
18:04 21 °C 18.7 °C 1013.1 hPa Calm   3.2 km/h 87% 0 mm 70 W/m2
18:09 20.9 °C 18.7 °C 1013.1 hPa Calm     87.1% 0 mm 69 W/m2
18:14 20.9 °C 18.8 °C 1013.1 hPa SW 0.2 km/h 3.2 km/h 88% 0 mm 49 W/m2
18:19 20.9 °C 18.8 °C 1013.1 hPa Calm   3.2 km/h 88% 0 mm 42 W/m2
18:24 20.9 °C 18.8 °C 1013.1 hPa South 0.2 km/h 4.8 km/h 88% 0 mm 46 W/m2
18:29 20.8 °C 18.8 °C 1012.8 hPa Calm   4.8 km/h 88% 0 mm 40 W/m2
18:34 20.8 °C 18.8 °C 1012.8 hPa Calm   4.8 km/h 88% 0 mm 42 W/m2
18:39 20.8 °C 18.8 °C 1012.8 hPa South 0.5 km/h 8 km/h 88% 0 mm 72 W/m2
18:44 20.8 °C 18.8 °C 1013.1 hPa Calm   8 km/h 88% 0 mm 72 W/m2
18:49 20.8 °C 18.8 °C 1013.1 hPa Calm   8 km/h 88% 0 mm 58 W/m2
18:54 20.9 °C 18.8 °C 1013.1 hPa Calm   8 km/h 88% 0 mm 65 W/m2
18:59 20.9 °C 18.8 °C 1012.8 hPa Calm   8 km/h 88% 0 mm 67 W/m2
19:04 20.9 °C 18.9 °C 1012.8 hPa South 0.2 km/h 8 km/h 88% 0 mm 63 W/m2
19:09 20.9 °C 18.9 °C 1012.8 hPa Calm   1.6 km/h 88% 0 mm 51 W/m2
19:14 20.9 °C 18.8 °C 1013.1 hPa Calm   1.6 km/h 88% 0 mm 46 W/m2
19:15 20.9 °C 18.8 °C 1012.8 hPa Calm   1.6 km/h 88% 0 mm 39 W/m2
19:30 20.8 °C 18.8 °C 1013.1 hPa Calm   4.8 km/h 88% 0 mm 37 W/m2
20:04 20.5 °C 18.7 °C 1013.1 hPa Calm   4.8 km/h 89.7% 0 mm 37 W/m2
20:09 20.4 °C 18.7 °C 1013.1 hPa Calm     90% 0 mm 0 W/m2
20:14 20.3 °C 18.7 °C 1013.1 hPa SSW 0.2 km/h 4.8 km/h 90% 0 mm 0 W/m2
20:19 20.3 °C 18.6 °C 1013.1 hPa SSW 0.5 km/h 4.8 km/h 90% 0 mm 0 W/m2
20:24 20.3 °C 18.6 °C 1013.1 hPa SSW 0.2 km/h 4.8 km/h 90% 0 mm 0 W/m2
20:29 20.2 °C 18.6 °C 1013.1 hPa SSW 0.3 km/h 4.8 km/h 90.4% 0 mm 0 W/m2
20:34 20.2 °C 18.6 °C 1013.1 hPa SSW 0.2 km/h 4.8 km/h 90.4% 0 mm 0 W/m2
20:39 20.1 °C 18.6 °C 1013.1 hPa Calm   3.2 km/h 91% 0 mm 0 W/m2
20:44 20.1 °C 18.6 °C 1013.1 hPa SW 0.5 km/h 9.7 km/h 91% 0 mm 0 W/m2
20:49 20.1 °C 18.6 °C 1013.1 hPa Calm   9.7 km/h 91% 0 mm 0 W/m2
20:54 20.1 °C 18.6 °C 1013.1 hPa Calm   9.7 km/h 91% 0 mm 0 W/m2
20:59 20.1 °C 18.6 °C 1013.1 hPa Calm   9.7 km/h 91% 0 mm 0 W/m2
21:04 20.1 °C 18.6 °C 1013.1 hPa Calm   9.7 km/h 91% 0 mm 0 W/m2
21:09 20.1 °C 18.6 °C 1013.4 hPa Calm   3.2 km/h 91% 0 mm 0 W/m2
21:14 20.1 °C 18.6 °C 1013.4 hPa Calm   3.2 km/h 91% 0 mm 0 W/m2
21:19 20.1 °C 18.6 °C 1013.4 hPa Calm   3.2 km/h 91% 0 mm 0 W/m2
21:24 20.1 °C 18.6 °C 1013.4 hPa SW 0.3 km/h 6.4 km/h 91% 0 mm 0 W/m2
21:29 20.1 °C 18.6 °C 1013.4 hPa Calm   6.4 km/h 91% 0 mm 0 W/m2
21:34 20 °C 18.5 °C 1013.4 hPa Calm   6.4 km/h 91% 0 mm 0 W/m2
21:39 19.9 °C 18.6 °C 1013.1 hPa Calm     91.5% 0 mm 0 W/m2
21:44 19.9 °C 18.6 °C 1013.1 hPa Calm     92% 0 mm 0 W/m2
21:49 19.9 °C 18.6 °C 1013.1 hPa Calm     92% 0 mm 0 W/m2
21:54 19.9 °C 18.6 °C 1013.1 hPa Calm     92% 0 mm 0 W/m2
21:59 19.8 °C 18.5 °C 1013.1 hPa Calm     92% 0 mm 0 W/m2
22:04 19.8 °C 18.5 °C 1013.1 hPa Calm     92% 0 mm 0 W/m2
22:09 19.8 °C 18.4 °C 1013.1 hPa Calm     92% 0 mm 0 W/m2
22:14 19.8 °C 18.4 °C 1013.1 hPa Calm     92% 0 mm 0 W/m2
22:19 19.7 °C 18.4 °C 1013.1 hPa Calm     92% 0 mm 0 W/m2
22:24 19.7 °C 18.4 °C 1013.1 hPa Calm     92% 0 mm 0 W/m2
22:29 19.7 °C 18.3 °C 1013.1 hPa Calm     92% 0 mm 0 W/m2
22:34 19.6 °C 18.3 °C 1012.8 hPa Calm     92.3% 0 mm 0 W/m2
22:39 19.5 °C 18.3 °C 1012.8 hPa Calm     93% 0 mm 0 W/m2
22:44 19.4 °C 18.3 °C 1012.8 hPa Calm   1.6 km/h 93% 0 mm 0 W/m2
22:49 19.4 °C 18.3 °C 1012.8 hPa Calm   1.6 km/h 93% 0 mm 0 W/m2
22:54 19.4 °C 18.2 °C 1012.4 hPa Calm   1.6 km/h 93% 0 mm 0 W/m2
22:59 19.3 °C 18.2 °C 1012.4 hPa Calm   1.6 km/h 93% 0 mm 0 W/m2
23:04 19.3 °C 18.2 °C 1012.4 hPa Calm   1.6 km/h 93% 0 mm 0 W/m2
23:09 19.3 °C 18.2 °C 1012.4 hPa Calm     93.4% 0 mm 0 W/m2
23:14 19.3 °C 18.3 °C 1012.1 hPa Calm     94% 0 mm 0 W/m2
23:19 19.2 °C 18.2 °C 1012.4 hPa Calm     94% 0 mm 0 W/m2
23:24 19.2 °C 18.2 °C 1012.1 hPa Calm     94% 0 mm 0 W/m2
23:29 19.2 °C 18.2 °C 1012.1 hPa Calm     94% 0 mm 0 W/m2
23:34 19.2 °C 18.2 °C 1012.1 hPa SW 0.2 km/h 4.8 km/h 94% 0 mm 0 W/m2
23:39 19.2 °C 18.2 °C 1012.1 hPa Calm   4.8 km/h 94% 0 mm 0 W/m2
23:44 19.2 °C 18.2 °C 1011.7 hPa Calm   4.8 km/h 94% 0 mm 0 W/m2
23:49 19.1 °C 18.1 °C 1011.7 hPa Calm   4.8 km/h 94% 0 mm 0 W/m2
23:54 19.1 °C 18.1 °C 1011.7 hPa Calm   4.8 km/h 94% 0 mm 0 W/m2
23:59 19.1 °C 18.1 °C 1011.7 hPa Calm   4.8 km/h 94% 0 mm 0 W/m2
Hartford County Weather
Compliments of Weather Underground - 2 mb